Time;durP1;ratioP1;P1;durP2;ratioP2;P2;SDS_P1;SDS_P2;PMS_P1;PMS_P2;Temp;Humidity;BMP_temperature;BMP_pressure;BME280_temperature;BME280_humidity;BME280_pressure;Samples;Min_cycle;Max_cycle;Signal;HPM_P1;HPM_P2
2022/06/06 00:00:10;;;;;;;83.55;48.03;;;;;;;13.73;100.00;101234.41;6466992;23;20113;-76
2022/06/06 00:02:44;;;;;;;74.50;44.65;;;;;;;13.71;100.00;101233.59;6466676;23;20086;-75
2022/06/06 00:05:17;;;;;;;72.75;44.95;;;;;;;13.68;100.00;101226.63;6467407;23;20426;-75
2022/06/06 00:07:48;;;;;;;75.32;46.22;;;;;;;13.62;100.00;101227.63;6493727;23;20054;-75
2022/06/06 00:10:20;;;;;;;76.77;44.83;;;;;;;13.64;100.00;101228.44;6494422;23;20005;-76
2022/06/06 00:12:51;;;;;;;73.70;44.93;;;;;;;13.61;100.00;101232.88;6494222;23;20014;-76
2022/06/06 00:15:23;;;;;;;77.93;44.80;;;;;;;13.63;100.00;101231.94;6493663;23;20004;-74
2022/06/06 00:17:54;;;;;;;82.20;46.83;;;;;;;13.59;100.00;101242.53;6493709;23;20107;-76
2022/06/06 00:20:26;;;;;;;75.37;44.67;;;;;;;13.64;100.00;101238.06;6494139;23;20008;-77
2022/06/06 00:22:59;;;;;;;73.18;43.67;;;;;;;13.62;100.00;101239.84;6494069;23;20425;-74
2022/06/06 00:25:31;;;;;;;71.50;42.90;;;;;;;13.63;100.00;101225.84;6493901;23;20063;-75
2022/06/06 00:28:02;;;;;;;64.18;40.10;;;;;;;13.62;100.00;101225.00;6494242;23;20410;-76
2022/06/06 00:30:33;;;;;;;72.50;40.40;;;;;;;13.60;100.00;101218.06;6466269;23;20083;-75
2022/06/06 00:35:57;;;;;;;69.45;39.83;;;;;;;13.66;100.00;101216.19;6493945;23;20456;-76
2022/06/06 00:38:28;;;;;;;68.00;39.50;;;;;;;13.72;100.00;101216.94;6493802;23;20073;-75
2022/06/06 00:40:59;;;;;;;64.30;39.67;;;;;;;13.70;100.00;101206.53;6494430;23;20016;-74
2022/06/06 00:43:31;;;;;;;69.10;40.00;;;;;;;13.70;100.00;101205.63;6467102;23;20024;-78
2022/06/06 00:46:02;;;;;;;66.67;39.07;;;;;;;13.69;100.00;101210.03;6495858;23;20485;-76
2022/06/06 00:48:40;;;;;;;70.30;40.70;;;;;;;13.73;100.00;101211.69;6496026;23;20083;-77
2022/06/06 00:51:15;;;;;;;66.13;39.30;;;;;;;13.71;100.00;101194.28;6495483;23;20091;-77
2022/06/06 00:53:51;;;;;;;63.97;40.08;;;;;;;13.72;100.00;101215.22;6496236;23;20004;-76
2022/06/06 00:56:38;;;;;;;63.95;41.35;;;;;;;13.73;100.00;101210.81;6495536;23;20039;-77
2022/06/06 00:59:13;;;;;;;68.95;39.90;;;;;;;13.72;100.00;101206.47;6495252;23;20012;-77
2022/06/06 01:01:44;;;;;;;64.85;41.88;;;;;;;13.69;100.00;101204.78;6496202;23;20008;-78
2022/06/06 01:04:19;;;;;;;72.13;41.50;;;;;;;13.76;100.00;101201.13;6469665;23;20012;-77
2022/06/06 01:06:50;;;;;;;67.32;39.92;;;;;;;13.76;100.00;101205.53;6496389;23;20009;-76
2022/06/06 01:09:24;;;;;;;76.03;46.50;;;;;;;13.70;100.00;101217.00;6495713;23;20008;-76
2022/06/06 01:11:59;;;;;;;75.97;46.53;;;;;;;13.73;100.00;101213.44;6495532;23;20008;-78
2022/06/06 01:14:45;;;;;;;74.80;44.80;;;;;;;13.77;100.00;101208.13;6495889;23;20018;-75
2022/06/06 01:17:31;;;;;;;74.68;45.28;;;;;;;13.74;100.00;101213.41;6495486;23;20079;-75
2022/06/06 01:20:14;;;;;;;78.00;47.33;;;;;;;13.74;100.00;101210.78;6495301;23;20004;-75
2022/06/06 01:23:16;;;;;;;80.97;49.80;;;;;;;13.79;100.00;101202.84;6495940;23;20014;-76
2022/06/06 01:26:25;;;;;;;85.95;51.58;;;;;;;13.76;100.00;101211.63;6496055;23;20008;-78
2022/06/06 01:29:03;;;;;;;85.07;51.75;;;;;;;13.75;100.00;101199.44;6495456;23;20004;-77
2022/06/06 01:31:57;;;;;;;77.45;50.05;;;;;;;13.77;100.00;101213.38;6495053;23;20012;-77
2022/06/06 01:34:32;;;;;;;81.60;50.85;;;;;;;13.78;100.00;101211.59;6495965;23;20023;-77
2022/06/06 01:37:24;;;;;;;80.03;50.70;;;;;;;13.78;100.00;101207.25;6495912;23;20414;-77
2022/06/06 01:39:57;;;;;;;73.20;49.42;;;;;;;13.84;100.00;101204.47;6495779;23;20011;-78
2022/06/06 01:42:44;;;;;;;75.90;49.17;;;;;;;13.84;100.00;101209.72;6495426;23;20016;-78
2022/06/06 01:45:29;;;;;;;80.72;49.72;;;;;;;13.83;100.00;101208.00;6495266;23;20004;-77
2022/06/06 01:48:14;;;;;;;74.60;47.03;;;;;;;13.87;100.00;101214.03;6495311;23;20022;-77
2022/06/06 01:50:46;;;;;;;72.75;46.58;;;;;;;13.84;100.00;101206.25;6494847;23;20015;-76
2022/06/06 01:53:20;;;;;;;71.33;49.10;;;;;;;13.81;100.00;101203.69;6495826;23;20406;-77
2022/06/06 01:55:53;;;;;;;67.53;44.72;;;;;;;13.82;100.00;101202.78;6494471;23;20039;-78
2022/06/06 01:58:30;;;;;;;70.90;45.08;;;;;;;13.79;100.00;101208.09;6495583;23;20004;-77
2022/06/06 02:01:03;;;;;;;62.90;41.50;;;;;;;13.78;100.00;101194.13;6494480;23;20000;-76
2022/06/06 02:03:35;;;;;;;67.90;44.33;;;;;;;13.79;100.00;101200.22;6495430;23;20008;-76
2022/06/06 02:06:06;;;;;;;63.53;40.27;;;;;;;13.77;100.00;101181.06;6495095;23;20069;-75
2022/06/06 02:08:37;;;;;;;58.43;37.63;;;;;;;13.88;100.00;101184.34;6495303;23;20004;-75
2022/06/06 02:11:11;;;;;;;56.70;35.70;;;;;;;13.84;100.00;101165.16;6494821;23;20062;-75
2022/06/06 02:13:42;;;;;;;58.50;36.00;;;;;;;13.82;100.00;101172.19;6495583;23;20015;-77
2022/06/06 02:16:14;;;;;;;51.70;35.93;;;;;;;13.83;100.00;101178.34;6495244;23;20012;-76
2022/06/06 02:18:45;;;;;;;55.73;36.83;;;;;;;13.83;100.00;101181.81;6495060;23;20437;-75
2022/06/06 02:21:17;;;;;;;54.53;35.33;;;;;;;13.82;100.00;101180.06;6494954;23;20012;-75
2022/06/06 02:23:48;;;;;;;52.17;34.50;;;;;;;13.83;100.00;101192.28;6495116;23;20048;-77
2022/06/06 02:26:20;;;;;;;54.10;34.57;;;;;;;13.85;100.00;101187.88;6495049;23;20018;-77
2022/06/06 02:28:51;;;;;;;52.13;33.53;;;;;;;13.87;100.00;101193.06;6495391;23;20030;-75
2022/06/06 02:31:23;;;;;;;51.97;35.00;;;;;;;13.85;100.00;101189.63;6494460;23;20008;-77
2022/06/06 02:33:55;;;;;;;54.20;35.33;;;;;;;13.89;100.00;101193.06;6494984;23;20284;-76
2022/06/06 02:36:27;;;;;;;60.57;36.83;;;;;;;13.89;100.00;101193.06;6494975;23;20075;-75
2022/06/06 02:38:58;;;;;;;55.17;35.95;;;;;;;13.88;100.00;101193.94;6495003;23;20008;-77
2022/06/06 02:41:30;;;;;;;60.30;37.40;;;;;;;13.86;100.00;101188.72;6494783;23;20026;-77
2022/06/06 02:44:01;;;;;;;57.17;35.90;;;;;;;13.83;100.00;101188.81;6494884;23;20466;-77
2022/06/06 02:46:32;;;;;;;55.17;36.17;;;;;;;13.83;100.00;101180.94;6495022;23;20004;-75
2022/06/06 02:49:04;;;;;;;52.00;35.57;;;;;;;13.84;100.00;101177.41;6494105;23;20004;-76
2022/06/06 02:51:35;;;;;;;57.27;36.23;;;;;;;13.82;100.00;101181.84;6494549;23;20417;-75
2022/06/06 02:54:07;;;;;;;55.13;35.97;;;;;;;13.82;100.00;101181.84;6494386;23;20019;-77
2022/06/06 02:56:38;;;;;;;82.70;37.17;;;;;;;13.80;100.00;101184.47;6494463;23;20398;-73
2022/06/06 02:59:11;;;;;;;56.97;34.47;;;;;;;13.79;100.00;101182.75;6494771;23;20453;-74
2022/06/06 03:01:43;;;;;;;55.47;36.78;;;;;;;13.78;100.00;101188.00;6494938;23;20004;-75
2022/06/06 03:04:14;;;;;;;61.73;37.33;;;;;;;13.78;100.00;101188.91;6494622;23;20107;-76
2022/06/06 03:07:00;;;;;;;58.47;37.50;;;;;;;13.75;100.00;101186.34;6494585;23;20330;-75
2022/06/06 03:09:37;;;;;;;57.33;37.17;;;;;;;13.75;100.00;101188.97;6494361;23;20003;-76
2022/06/06 03:12:14;;;;;;;57.08;37.70;;;;;;;13.75;100.00;101185.44;6494823;23;20050;-75
2022/06/06 03:15:06;;;;;;;53.17;35.08;;;;;;;13.72;100.00;101186.38;6494812;23;20556;-78
2022/06/06 03:21:02;;;;;;;59.97;38.95;;;;;;;13.66;100.00;101197.84;6494422;23;20008;-77
2022/06/06 03:24:01;;;;;;;51.83;35.53;;;;;;;13.68;100.00;101198.69;6494623;23;20011;-77
2022/06/06 03:26:56;;;;;;;53.17;34.47;;;;;;;13.63;100.00;101197.91;6494289;23;20058;-77
2022/06/06 03:29:36;;;;;;;52.75;35.17;;;;;;;13.61;100.00;101201.44;6494851;23;20518;-76
2022/06/06 03:32:19;;;;;;;55.03;36.00;;;;;;;13.59;100.00;101203.25;6493959;23;20012;-77
2022/06/06 03:35:11;;;;;;;48.28;34.58;;;;;;;13.58;100.00;101206.75;6494162;23;20012;-77
2022/06/06 03:38:05;;;;;;;47.93;31.60;;;;;;;13.58;100.00;101204.13;6494616;23;20695;-76
2022/06/06 03:41:14;;;;;;;47.03;32.85;;;;;;;13.50;100.00;101205.13;6466511;23;20257;-78
2022/06/06 03:44:13;;;;;;;42.15;29.50;;;;;;;13.37;100.00;101200.16;6366761;23;20102;-77
2022/06/06 03:46:53;;;;;;;42.08;30.05;;;;;;;13.28;100.00;101203.72;6366075;23;20093;-76
2022/06/06 03:49:48;;;;;;;42.10;30.02;;;;;;;13.19;100.00;101199.53;6366067;23;20009;-75
2022/06/06 03:52:56;;;;;;;41.55;30.02;;;;;;;13.19;100.00;101219.63;6366669;23;20428;-74
2022/06/06 03:55:44;;;;;;;41.63;29.58;;;;;;;13.23;100.00;101216.03;6366092;23;20403;-75
2022/06/06 03:58:17;;;;;;;43.80;28.42;;;;;;;13.16;100.00;101209.19;6342036;23;20010;-75
2022/06/06 04:00:49;;;;;;;36.75;25.60;;;;;;;13.15;100.00;101213.56;6365961;23;20018;-77
2022/06/06 04:03:22;;;;;;;37.90;26.38;;;;;;;13.08;100.00;101207.56;6366767;23;20014;-77
2022/06/06 04:05:54;;;;;;;36.13;25.77;;;;;;;13.03;100.00;101203.31;6366530;23;20454;-77
2022/06/06 04:08:26;;;;;;;37.55;25.52;;;;;;;13.01;100.00;101220.75;6366811;23;20045;-79
2022/06/06 04:11:00;;;;;;;36.70;25.77;;;;;;;12.92;100.00;101219.16;6366716;23;20215;-78
2022/06/06 04:13:44;;;;;;;40.10;25.42;;;;;;;12.93;100.00;101220.91;6366253;23;20363;-77
2022/06/06 04:16:34;;;;;;;40.65;28.00;;;;;;;12.83;100.00;101214.94;6366412;23;20367;-77
2022/06/06 04:19:24;;;;;;;37.95;22.65;;;;;;;12.79;100.00;101217.63;6366778;23;20053;-77
2022/06/06 04:22:17;;;;;;;34.75;22.98;;;;;;;12.74;100.00;101221.16;6492015;23;20475;-78
2022/06/06 04:25:16;;;;;;;31.05;23.45;;;;;;;12.82;100.00;101228.91;6496644;23;20303;-76
2022/06/06 04:27:58;;;;;;;34.78;23.90;;;;;;;12.96;100.00;101228.72;6497416;23;20115;-78
2022/06/06 04:30:52;;;;;;;31.27;22.87;;;;;;;13.03;100.00;101232.09;6497721;23;20047;-79
2022/06/06 04:33:42;;;;;;;37.33;22.45;;;;;;;13.06;100.00;101232.03;6497527;23;20008;-75
2022/06/06 04:36:21;;;;;;;27.20;19.65;;;;;;;13.03;100.00;101243.41;6497513;23;20004;-79
2022/06/06 04:39:05;;;;;;;24.92;19.85;;;;;;;13.00;100.00;101240.84;6498205;23;20122;-79
2022/06/06 04:41:48;;;;;;;25.30;19.13;;;;;;;13.03;100.00;101238.19;6498272;23;20015;-78
2022/06/06 04:44:31;;;;;;;26.15;19.05;;;;;;;13.04;100.00;101244.28;6500023;23;20003;-81
2022/06/06 04:47:07;;;;;;;25.48;18.35;;;;;;;13.02;100.00;101238.19;6499516;23;20738;-78
2022/06/06 04:49:39;;;;;;;23.48;19.17;;;;;;;13.04;100.00;101245.16;6499549;23;20004;-77
2022/06/06 04:52:11;;;;;;;21.85;18.08;;;;;;;13.10;100.00;101241.56;6497176;23;20022;-78
2022/06/06 04:54:45;;;;;;;22.83;17.63;;;;;;;13.08;99.75;101238.97;6497015;23;20008;-80
2022/06/06 04:57:19;;;;;;;23.73;18.38;;;;;;;13.11;99.00;101241.53;6496028;23;20016;-79
2022/06/06 04:59:52;;;;;;;25.25;19.33;;;;;;;13.09;99.60;101239.84;6496123;23;20038;-78
2022/06/06 05:02:25;;;;;;;22.58;20.20;;;;;;;13.03;98.28;101235.56;6496574;23;20079;-79
2022/06/06 05:04:56;;;;;;;22.02;19.65;;;;;;;12.89;97.12;101241.00;6496751;23;20008;-79
2022/06/06 05:07:40;;;;;;;23.90;21.47;;;;;;;12.93;98.20;101239.22;6495824;23;20000;-78
2022/06/06 05:10:34;;;;;;;23.85;21.13;;;;;;;12.90;96.98;101241.88;6496012;23;20397;-77
2022/06/06 05:13:24;;;;;;;24.88;21.52;;;;;;;12.89;96.91;101238.38;6495947;23;20008;-81
2022/06/06 05:16:19;;;;;;;22.70;19.90;;;;;;;12.85;96.96;101243.72;6496468;23;20020;-78
2022/06/06 05:19:06;;;;;;;22.98;20.55;;;;;;;12.81;97.55;101239.41;6496938;23;20016;-81
2022/06/06 05:21:47;;;;;;;27.63;22.17;;;;;;;12.77;97.29;101241.19;6495689;23;20012;-80
2022/06/06 05:24:40;;;;;;;22.25;19.83;;;;;;;12.78;97.62;101248.13;6496505;23;20430;-81
2022/06/06 05:27:32;;;;;;;26.02;21.52;;;;;;;12.79;97.10;101249.88;6495869;23;20062;-80
2022/06/06 05:30:18;;;;;;;24.95;20.13;;;;;;;12.87;97.17;101247.16;6496100;23;20334;-79
2022/06/06 05:32:54;;;;;;;20.70;18.17;;;;;;;12.92;96.60;101248.81;6496018;23;20012;-79
2022/06/06 05:35:25;;;;;;;23.02;20.15;;;;;;;13.00;96.84;101247.84;6495260;23;20004;-78
2022/06/06 05:38:12;;;;;;;22.37;20.17;;;;;;;13.16;95.42;101248.47;6495821;23;20391;-80
2022/06/06 05:41:13;;;;;;;21.00;18.98;;;;;;;13.34;94.51;101255.19;6495588;23;20008;-78
2022/06/06 05:44:10;;;;;;;18.92;17.10;;;;;;;13.43;92.41;101249.78;6495884;23;20387;-80
2022/06/06 05:46:44;;;;;;;19.52;17.58;;;;;;;13.47;92.41;101264.56;6398464;23;20321;-80
2022/06/06 05:49:36;;;;;;;18.65;16.58;;;;;;;13.41;91.94;101267.25;6399384;23;20386;-79
2022/06/06 05:52:27;;;;;;;17.23;15.52;;;;;;;13.44;91.65;101269.84;6395261;23;20014;-79
2022/06/06 05:55:25;;;;;;;18.45;16.67;;;;;;;13.38;90.87;101267.31;6398393;23;20094;-75
2022/06/06 05:58:18;;;;;;;17.85;15.98;;;;;;;13.39;91.16;101269.91;6399093;23;20120;-79
2022/06/06 06:01:15;;;;;;;18.48;16.58;;;;;;;13.48;92.39;101263.66;6397162;23;20129;-80
2022/06/06 06:04:35;;;;;;;19.45;16.67;;;;;;;13.65;92.72;101269.47;6399018;23;20009;-79
2022/06/06 06:07:33;;;;;;;19.80;15.70;;;;;;;13.54;90.50;101271.44;6277616;23;20042;-80
2022/06/06 06:10:10;;;;;;;17.85;15.95;;;;;;;13.46;91.21;101252.38;6277684;23;20055;-80
2022/06/06 06:12:58;;;;;;;17.42;14.82;;;;;;;13.40;89.81;101266.41;6273182;23;20023;-80
2022/06/06 06:15:52;;;;;;;15.68;12.48;;;;;;;13.38;90.14;101265.59;6278383;23;20035;-82
2022/06/06 06:18:36;;;;;;;15.77;11.85;;;;;;;13.36;89.95;101269.09;6277133;23;20114;-80
2022/06/06 06:21:12;;;;;;;14.52;12.05;;;;;;;13.39;91.38;101263.81;6277438;23;20015;-79
2022/06/06 06:23:52;;;;;;;12.07;10.57;;;;;;;13.34;90.24;101274.38;6305657;23;20010;-80
2022/06/06 06:26:25;;;;;;;11.25;9.80;;;;;;;13.41;91.39;101268.16;6336308;23;20010;-81
2022/06/06 06:29:02;;;;;;;11.45;7.75;;;;;;;13.46;89.62;101278.56;6337511;23;20037;-79
2022/06/06 06:32:00;;;;;;;11.30;7.53;;;;;;;13.44;88.18;101275.97;6337205;23;20305;-79
2022/06/06 06:34:46;;;;;;;8.88;6.35;;;;;;;13.58;88.19;101295.81;6325715;23;20014;-75
2022/06/06 06:37:37;;;;;;;9.40;5.93;;;;;;;13.65;89.17;101300.03;6336936;23;20081;-78
2022/06/06 06:40:27;;;;;;;9.43;5.78;;;;;;;13.77;86.88;101291.13;6337448;23;20017;-77
2022/06/06 06:43:17;;;;;;;8.40;5.13;;;;;;;13.75;86.71;101292.88;6384226;23;20016;-80
2022/06/06 06:45:54;;;;;;;9.57;4.88;;;;;;;13.84;86.52;101283.09;6496160;23;20111;-78
2022/06/06 06:48:41;;;;;;;9.32;5.00;;;;;;;13.82;85.91;101303.22;6494354;23;20851;-79
2022/06/06 06:51:49;;;;;;;10.40;4.47;;;;;;;13.72;85.37;101301.66;6497279;23;20012;-79
2022/06/06 06:54:41;;;;;;;5.88;4.05;;;;;;;13.81;86.57;101298.91;6498533;23;20011;-79
2022/06/06 06:57:43;;;;;;;5.15;3.45;;;;;;;13.74;84.78;101302.50;6496015;23;20063;-80
2022/06/06 07:00:20;;;;;;;6.75;3.50;;;;;;;13.95;85.17;101303.00;6368834;23;20042;-80
2022/06/06 07:10:02;;;;;;;8.35;3.03;;;;;;;14.38;79.69;101300.41;6367564;23;20018;-78
2022/06/06 07:13:15;;;;;;;9.48;2.60;;;;;;;14.56;80.84;101301.78;6342454;23;20029;-77
2022/06/06 07:15:47;;;;;;;5.97;3.33;;;;;;;14.53;77.72;101299.22;6367836;23;20018;-80
2022/06/06 07:18:22;;;;;;;6.03;2.60;;;;;;;14.86;77.31;101302.06;6363381;23;20514;-79
2022/06/06 07:20:54;;;;;;;5.63;2.85;;;;;;;15.06;75.34;101306.00;6367567;23;20014;-75
2022/06/06 07:23:31;;;;;;;3.55;1.88;;;;;;;14.95;74.19;101299.22;6366996;23;20014;-79
2022/06/06 07:26:04;;;;;;;7.00;3.38;;;;;;;14.92;72.94;101309.81;6341325;23;20013;-78
2022/06/06 07:28:36;;;;;;;4.43;1.92;;;;;;;14.93;75.16;101300.16;6367696;23;20032;-79
2022/06/06 07:31:28;;;;;;;3.47;2.23;;;;;;;14.93;71.29;101313.28;6368016;23;20010;-77
2022/06/06 07:34:25;;;;;;;5.00;1.83;;;;;;;15.21;72.81;101305.63;6366108;23;20009;-81
2022/06/06 07:37:03;;;;;;;5.05;2.00;;;;;;;15.33;70.91;101309.72;6447587;23;20008;-78
2022/06/06 07:40:13;;;;;;;3.35;1.95;;;;;;;15.59;71.00;101316.09;6495331;23;20385;-80
2022/06/06 07:43:12;;;;;;;4.68;1.85;;;;;;;16.12;70.72;101318.25;6367206;23;20014;-79
2022/06/06 07:45:54;;;;;;;5.65;2.20;;;;;;;16.25;68.16;101317.00;6367714;23;20057;-77
2022/06/06 07:48:50;;;;;;;5.00;1.70;;;;;;;16.30;68.44;101319.53;6367868;23;20109;-75
2022/06/06 07:51:50;;;;;;;2.67;1.80;;;;;;;16.28;68.66;101319.56;6367853;23;20018;-79
2022/06/06 07:54:27;;;;;;;3.67;1.80;;;;;;;16.30;67.39;101323.00;6366313;23;20020;-81
2022/06/06 07:57:13;;;;;;;7.15;2.10;;;;;;;16.16;67.37;101320.75;6369773;23;20021;-79
2022/06/06 08:00:03;;;;;;;3.85;1.73;;;;;;;16.03;68.19;101322.88;6366156;23;20010;-79
2022/06/06 08:03:09;;;;;;;7.97;1.98;;;;;;;16.24;67.92;101325.78;6369462;23;20099;-79
2022/06/06 08:05:56;;;;;;;3.65;1.73;;;;;;;16.09;66.64;101318.34;6363637;23;20021;-78
2022/06/06 08:08:47;;;;;;;5.65;1.55;;;;;;;16.49;67.21;101309.34;6370896;23;20021;-74
2022/06/06 08:11:36;;;;;;;4.40;1.45;;;;;;;16.60;65.97;101315.16;6369415;23;20421;-77
2022/06/06 08:14:25;;;;;;;2.20;1.73;;;;;;;16.99;67.10;101314.88;6367585;23;20109;-80
2022/06/06 08:17:06;;;;;;;3.55;1.75;;;;;;;16.70;65.18;101313.94;6369522;23;20463;-79
2022/06/06 08:19:58;;;;;;;5.35;1.67;;;;;;;16.64;64.60;101311.50;6432872;23;20077;-82
2022/06/06 08:22:31;;;;;;;2.25;1.73;;;;;;;16.20;65.74;101311.88;6495404;23;20438;-79
2022/06/06 08:25:06;;;;;;;4.97;1.60;;;;;;;16.44;65.43;101309.47;6497750;23;20008;-83
2022/06/06 08:27:42;;;;;;;4.32;1.90;;;;;;;16.59;66.55;101308.16;6497018;23;20008;-80
2022/06/06 08:30:15;;;;;;;4.35;1.58;;;;;;;16.39;65.32;101308.75;6495701;23;20027;-81
2022/06/06 08:32:47;;;;;;;3.40;1.50;;;;;;;16.37;65.82;101308.78;6497905;23;20490;-79
2022/06/06 08:35:19;;;;;;;6.10;1.77;;;;;;;16.58;65.88;101298.50;6497251;23;20004;-82
2022/06/06 08:37:51;;;;;;;;;;;;;;;17.15;65.48;101296.81;6498284;23;20031;-81
2022/06/06 08:40:28;;;;;;;4.83;1.50;;;;;;;17.34;64.12;101294.44;6498028;23;19947;-82
2022/06/06 08:43:28;;;;;;;7.60;1.48;;;;;;;17.48;65.17;101296.59;6498772;23;20322;-77
2022/06/06 08:46:10;;;;;;;4.07;1.70;;;;;;;17.12;62.13;101305.66;6497743;23;20008;-80
2022/06/06 08:49:02;;;;;;;3.92;1.75;;;;;;;17.01;63.78;101289.34;6497744;23;20019;-82
2022/06/06 08:51:52;;;;;;;7.22;2.45;;;;;;;17.06;62.48;101302.38;6497633;23;20307;-82
2022/06/06 08:54:42;;;;;;;5.53;3.42;;;;;;;17.01;62.02;101296.38;6498933;23;20066;-79
2022/06/06 08:57:25;;;;;;;7.10;3.33;;;;;;;16.65;64.08;101293.97;6498224;23;20012;-85
2022/06/06 09:00:32;;;;;;;5.80;2.90;;;;;;;16.65;65.05;101294.81;6497941;23;20512;-81
2022/06/06 09:03:08;;;;;;;5.80;1.83;;;;;;;16.83;63.70;101288.13;6400658;23;20523;-78
2022/06/06 09:05:45;;;;;;;2.78;1.92;;;;;;;17.01;62.76;101281.44;6400768;23;20480;-80
2022/06/06 09:08:51;;;;;;;5.05;2.28;;;;;;;17.29;63.64;101291.97;6400544;23;20454;-80
2022/06/06 09:12:13;;;;;;;6.10;2.33;;;;;;;17.24;64.17;101285.09;6400763;23;20427;-82
2022/06/06 09:15:21;;;;;;;4.70;1.80;;;;;;;16.89;65.17;101282.69;6399638;23;20013;-80
2022/06/06 09:18:29;;;;;;;4.85;2.17;;;;;;;16.63;65.83;101277.31;6399860;23;20013;-81
2022/06/06 09:21:31;;;;;;;3.03;1.60;;;;;;;16.70;65.73;101270.97;6398455;23;20020;-82
2022/06/06 09:24:40;;;;;;;4.30;1.57;;;;;;;16.52;64.39;101286.41;6398447;23;20017;-77
2022/06/06 09:27:42;;;;;;;3.78;1.90;;;;;;;16.50;65.15;101292.63;6397967;23;20439;-75
2022/06/06 09:30:51;;;;;;;8.32;2.22;;;;;;;16.45;64.88;101278.75;6398815;23;20009;-80
2022/06/06 09:33:53;;;;;;;5.88;2.00;;;;;;;16.27;65.70;101275.72;6399333;23;20697;-82
2022/06/06 09:36:45;;;;;;;2.67;1.40;;;;;;;16.53;64.77;101274.09;6399050;23;20112;-82
2022/06/06 09:39:44;;;;;;;7.47;2.28;;;;;;;16.82;64.69;101261.84;6414262;23;20050;-82
2022/06/06 09:42:40;;;;;;;3.75;1.77;;;;;;;17.22;61.89;101268.50;6496285;23;20008;-84
2022/06/06 09:45:26;;;;;;;4.07;1.60;;;;;;;17.36;60.42;101268.06;6471225;23;20380;-80
2022/06/06 09:48:23;;;;;;;4.32;1.85;;;;;;;17.56;59.88;101259.44;6496971;23;20375;-83
2022/06/06 09:51:29;;;;;;;3.70;1.40;;;;;;;17.49;59.70;101256.16;6495053;23;20015;-79
2022/06/06 10:00:51;;;;;;;4.88;1.52;;;;;;;18.87;55.15;101258.19;6496799;23;20024;-82
2022/06/06 10:04:00;;;;;;;2.97;1.23;;;;;;;18.95;52.69;101252.59;6498304;23;20004;-79
2022/06/06 10:06:59;;;;;;;5.00;1.40;;;;;;;18.99;53.67;101243.59;6497435;23;20038;-82
2022/06/06 10:09:49;;;;;;;5.30;1.42;;;;;;;18.49;54.54;101252.56;6497942;23;20012;-84
2022/06/06 10:12:26;;;;;;;4.20;1.65;;;;;;;18.55;57.27;101243.56;6497883;23;20012;-83
2022/06/06 10:15:28;;;;;;;5.43;1.73;;;;;;;18.53;56.58;101262.13;6497786;23;20004;-82
2022/06/06 10:18:33;;;;;;;5.38;1.55;;;;;;;18.91;54.86;101249.19;6496459;23;20058;-80
2022/06/06 10:21:26;;;;;;;4.25;1.45;;;;;;;18.48;55.10;101234.16;6496852;23;20007;-80
2022/06/06 10:24:16;;;;;;;;;;;;;;;18.42;54.21;101235.28;6498832;23;20485;-81
2022/06/06 10:26:53;;;;;;;5.22;1.90;;;;;;;18.20;54.52;101248.41;6498054;23;19911;-84
2022/06/06 10:32:58;;;;;;;2.55;1.35;;;;;;;20.02;51.07;101231.28;6496941;23;20020;-80
2022/06/06 10:35:59;;;;;;;3.35;1.23;;;;;;;20.81;49.17;101240.03;6498254;23;20008;-80
2022/06/06 10:38:36;;;;;;;3.70;1.40;;;;;;;21.09;47.58;101226.28;6495599;23;20031;-80
2022/06/06 10:41:35;;;;;;;3.80;1.20;;;;;;;19.93;50.97;101237.00;6497030;23;20012;-80
2022/06/06 10:44:55;;;;;;;6.55;1.83;;;;;;;19.28;54.02;101262.69;6496116;23;20022;-79
2022/06/06 10:47:41;;;;;;;3.20;1.35;;;;;;;21.23;49.54;101249.47;6495512;23;20017;-80
2022/06/06 10:50:30;;;;;;;2.38;1.30;;;;;;;21.79;48.05;101253.66;6495784;23;20004;-81
2022/06/06 10:53:30;;;;;;;3.05;1.55;;;;;;;22.58;45.82;101250.31;6493750;23;20048;-77
2022/06/06 10:56:20;;;;;;;3.42;1.50;;;;;;;22.43;43.86;101264.47;6502033;22;20438;-82
2022/06/06 10:59:24;;;;;;;3.45;1.52;;;;;;;22.94;43.23;101230.59;6499196;23;20031;-83
2022/06/06 11:02:17;;;;;;;2.90;1.48;;;;;;;24.50;41.11;101236.28;6493498;23;20024;-86
2022/06/06 11:05:20;;;;;;;3.60;1.27;;;;;;;24.62;38.64;101247.97;6499425;23;20083;-80
2022/06/06 11:08:00;;;;;;;;;;;;;;;25.93;37.78;101245.41;6498427;23;20377;-80
2022/06/06 11:11:00;;;;;;;5.45;1.08;;;;;;;25.71;35.26;101232.69;6498691;23;20022;-80
2022/06/06 11:13:51;;;;;;;2.42;1.25;;;;;;;23.97;37.38;101254.69;6498784;23;20008;-80
2022/06/06 11:16:29;;;;;;;2.35;1.20;;;;;;;22.50;41.06;101262.31;6500134;23;20079;-84
2022/06/06 11:19:31;;;;;;;4.53;1.92;;;;;;;20.96;44.03;101212.78;6500449;23;20015;-85
2022/06/06 11:22:13;;;;;;;4.77;1.43;;;;;;;21.88;42.72;101211.66;6496598;23;19996;-84
2022/06/06 11:24:51;;;;;;;;;;;;;;;23.74;39.81;101214.34;6498242;23;20250;-83
2022/06/06 11:27:23;;;;;;;4.07;1.50;;;;;;;23.49;41.86;101199.03;6496024;23;19904;-81
2022/06/06 11:30:32;;;;;;;4.30;1.57;;;;;;;23.82;41.00;101181.94;6492366;23;20018;-83
2022/06/06 11:33:38;;;;;;;4.00;1.00;;;;;;;23.21;39.72;101191.84;6348511;23;20037;-86
2022/06/06 11:36:46;;;;;;;4.40;1.50;;;;;;;22.62;40.77;101213.81;6370185;23;20306;-80
2022/06/06 11:39:34;;;;;;;2.80;1.20;;;;;;;21.63;43.00;101212.97;6370597;23;20060;-82
2022/06/06 11:42:24;;;;;;;2.58;1.20;;;;;;;21.59;44.36;101220.22;6374762;23;20380;-82
2022/06/06 11:45:19;;;;;;;3.22;1.70;;;;;;;21.18;45.70;101214.38;6372759;23;20069;-84
2022/06/06 11:48:12;;;;;;;3.58;1.40;;;;;;;20.82;45.91;101209.94;6370234;23;20010;-83
2022/06/06 11:51:02;;;;;;;7.70;2.03;;;;;;;20.39;47.13;101208.41;6369587;23;20040;-80
2022/06/06 11:53:52;;;;;;;2.03;1.30;;;;;;;19.91;47.19;101220.31;6369616;23;20014;-83
2022/06/06 11:56:35;;;;;;;3.83;1.15;;;;;;;19.29;48.22;101203.63;6371165;23;20021;-81
2022/06/06 11:59:49;;;;;;;3.55;1.30;;;;;;;19.32;49.33;101208.78;6373450;23;20032;-88
2022/06/06 12:02:58;;;;;;;5.95;1.65;;;;;;;19.83;49.37;101206.59;6378437;23;20041;-82
2022/06/06 12:05:56;;;;;;;4.82;1.30;;;;;;;19.44;49.03;101208.25;6374263;23;20034;-83
2022/06/06 12:08:43;;;;;;;4.45;1.50;;;;;;;19.02;50.57;101195.94;6500879;23;20012;-87
2022/06/06 12:11:37;;;;;;;5.05;1.42;;;;;;;18.96;51.66;101201.47;6505219;23;20023;-88
2022/06/06 12:14:40;;;;;;;2.13;1.20;;;;;;;19.10;52.06;101208.81;6502176;23;20032;-87
2022/06/06 12:17:38;;;;;;;5.97;1.73;;;;;;;19.24;50.51;101195.00;6506746;23;20385;-85
2022/06/06 12:20:31;;;;;;;5.05;1.33;;;;;;;19.97;49.61;101206.81;6505315;23;20012;-87
2022/06/06 12:23:11;;;;;;;6.03;1.42;;;;;;;19.80;49.93;101201.44;6506241;23;20371;-87
2022/06/06 12:25:54;;;;;;;5.05;1.40;;;;;;;20.01;48.98;101194.31;6503149;23;20087;-89
2022/06/06 12:28:41;;;;;;;;;;;;;;;20.09;48.63;101209.84;6503875;23;20011;-87
2022/06/06 12:31:31;;;;;;;5.10;1.60;;;;;;;19.53;47.95;101221.97;6503995;23;19911;-87
2022/06/06 12:34:16;;;;;;;7.53;1.50;;;;;;;18.77;50.04;101199.56;6500435;23;20384;-80
2022/06/06 12:37:08;;;;;;;2.03;1.38;;;;;;;18.62;51.94;101202.78;6503097;23;20089;-84
2022/06/06 12:40:17;;;;;;;2.83;1.23;;;;;;;18.18;53.48;101208.88;6500985;23;20068;-83
2022/06/06 12:43:03;;;;;;;5.00;1.55;;;;;;;18.05;54.37;101207.63;6503239;23;20051;-85
2022/06/06 12:46:12;;;;;;;3.40;1.33;;;;;;;18.04;54.50;101213.81;6506070;23;20004;-82
2022/06/06 12:48:46;;;;;;;3.75;1.73;;;;;;;18.12;54.73;101205.63;6455668;23;20035;-88
2022/06/06 12:51:36;;;;;;;1.70;1.20;;;;;;;17.99;54.07;101202.59;6508167;23;20011;-84
2022/06/06 12:55:26;;;;;;;5.63;1.48;;;;;;;17.96;54.16;101203.53;6505808;23;20058;-84
2022/06/06 12:57:33;;;;;;;3.47;1.52;;;;;;;17.89;54.92;101206.47;6503713;23;20050;-79
2022/06/06 13:00:11;;;;;;;2.97;1.40;;;;;;;17.99;56.66;101207.84;6505427;23;20403;-79